sensor_id;sensor_type;location;lat;lon;timestamp;temperature;humidity
28677;DHT22;15858;48.338;11.078;2023-02-28T00:00:24;-0.80;99.90
28677;DHT22;15858;48.338;11.078;2023-02-28T00:02:51;-0.80;99.90
28677;DHT22;15858;48.338;11.078;2023-02-28T00:05:20;-0.80;99.90
28677;DHT22;15858;48.338;11.078;2023-02-28T00:07:47;-0.90;99.90
28677;DHT22;15858;48.338;11.078;2023-02-28T00:10:17;-0.80;99.90
28677;DHT22;15858;48.338;11.078;2023-02-28T00:12:43;-0.70;99.90
28677;DHT22;15858;48.338;11.078;2023-02-28T00:15:11;-0.90;99.90
28677;DHT22;15858;48.338;11.078;2023-02-28T00:17:37;-1.00;99.90
28677;DHT22;15858;48.338;11.078;2023-02-28T00:20:06;-0.90;99.90
28677;DHT22;15858;48.338;11.078;2023-02-28T00:22:32;-0.90;99.90
28677;DHT22;15858;48.338;11.078;2023-02-28T00:24:59;-1.00;99.90
28677;DHT22;15858;48.338;11.078;2023-02-28T00:27:26;-0.90;99.90
28677;DHT22;15858;48.338;11.078;2023-02-28T00:29:52;-1.00;99.90
28677;DHT22;15858;48.338;11.078;2023-02-28T00:32:19;-1.00;99.90
28677;DHT22;15858;48.338;11.078;2023-02-28T00:34:46;-1.00;99.90
28677;DHT22;15858;48.338;11.078;2023-02-28T00:37:12;-1.00;99.90
28677;DHT22;15858;48.338;11.078;2023-02-28T00:39:39;-1.00;99.90
28677;DHT22;15858;48.338;11.078;2023-02-28T00:42:07;-1.10;99.90
28677;DHT22;15858;48.338;11.078;2023-02-28T00:44:34;-1.10;99.90
28677;DHT22;15858;48.338;11.078;2023-02-28T00:47:00;-1.20;99.90
28677;DHT22;15858;48.338;11.078;2023-02-28T00:49:27;-1.20;99.90
28677;DHT22;15858;48.338;11.078;2023-02-28T00:51:55;-1.10;99.90
28677;DHT22;15858;48.338;11.078;2023-02-28T00:54:22;-1.10;99.90
28677;DHT22;15858;48.338;11.078;2023-02-28T00:56:50;-1.20;99.90
28677;DHT22;15858;48.338;11.078;2023-02-28T00:59:17;-1.20;99.90
28677;DHT22;15858;48.338;11.078;2023-02-28T01:01:45;-1.20;99.90
28677;DHT22;15858;48.338;11.078;2023-02-28T01:04:12;-1.20;99.90
28677;DHT22;15858;48.338;11.078;2023-02-28T01:06:39;-1.30;99.90
28677;DHT22;15858;48.338;11.078;2023-02-28T01:09:07;-1.30;99.90
28677;DHT22;15858;48.338;11.078;2023-02-28T01:11:34;-1.10;99.90
28677;DHT22;15858;48.338;11.078;2023-02-28T01:14:01;-1.30;99.90
28677;DHT22;15858;48.338;11.078;2023-02-28T01:16:28;-1.40;99.90
28677;DHT22;15858;48.338;11.078;2023-02-28T01:18:55;-1.20;99.90
28677;DHT22;15858;48.338;11.078;2023-02-28T01:21:22;-1.20;99.90
28677;DHT22;15858;48.338;11.078;2023-02-28T01:23:49;-1.20;99.90
28677;DHT22;15858;48.338;11.078;2023-02-28T01:26:21;-1.20;99.90
28677;DHT22;15858;48.338;11.078;2023-02-28T01:28:49;-1.30;99.90
28677;DHT22;15858;48.338;11.078;2023-02-28T01:31:17;-1.40;99.90
28677;DHT22;15858;48.338;11.078;2023-02-28T01:33:44;-1.40;99.90
28677;DHT22;15858;48.338;11.078;2023-02-28T01:36:19;-1.40;99.90
28677;DHT22;15858;48.338;11.078;2023-02-28T01:38:46;-1.50;99.90
28677;DHT22;15858;48.338;11.078;2023-02-28T01:41:22;-1.40;99.90
28677;DHT22;15858;48.338;11.078;2023-02-28T01:46:16;-1.50;99.90
28677;DHT22;15858;48.338;11.078;2023-02-28T01:48:56;-1.50;99.90
28677;DHT22;15858;48.338;11.078;2023-02-28T01:51:43;-1.40;99.90
28677;DHT22;15858;48.338;11.078;2023-02-28T01:54:14;-1.40;99.90
28677;DHT22;15858;48.338;11.078;2023-02-28T01:56:46;-1.50;99.90
28677;DHT22;15858;48.338;11.078;2023-02-28T01:59:22;-1.60;99.90
28677;DHT22;15858;48.338;11.078;2023-02-28T02:01:49;-1.60;99.90
28677;DHT22;15858;48.338;11.078;2023-02-28T02:04:16;-1.60;99.90
28677;DHT22;15858;48.338;11.078;2023-02-28T02:06:44;-1.60;99.90
28677;DHT22;15858;48.338;11.078;2023-02-28T02:09:12;-1.60;99.90
28677;DHT22;15858;48.338;11.078;2023-02-28T02:11:41;-1.50;99.90
28677;DHT22;15858;48.338;11.078;2023-02-28T02:17:04;-1.50;99.90
28677;DHT22;15858;48.338;11.078;2023-02-28T02:19:44;-1.60;99.90
28677;DHT22;15858;48.338;11.078;2023-02-28T02:25:25;-1.70;99.90
28677;DHT22;15858;48.338;11.078;2023-02-28T02:36:14;-1.70;99.90
28677;DHT22;15858;48.338;11.078;2023-02-28T02:38:53;-1.70;99.90
28677;DHT22;15858;48.338;11.078;2023-02-28T02:44:03;-1.70;99.90
28677;DHT22;15858;48.338;11.078;2023-02-28T02:46:37;-1.70;99.90
28677;DHT22;15858;48.338;11.078;2023-02-28T02:49:08;-1.50;99.90
28677;DHT22;15858;48.338;11.078;2023-02-28T02:51:36;-1.50;99.90
28677;DHT22;15858;48.338;11.078;2023-02-28T02:54:05;-1.40;99.90
28677;DHT22;15858;48.338;11.078;2023-02-28T02:56:36;-1.50;99.90
28677;DHT22;15858;48.338;11.078;2023-02-28T02:59:09;-1.50;99.90
28677;DHT22;15858;48.338;11.078;2023-02-28T03:01:38;-1.50;99.90
28677;DHT22;15858;48.338;11.078;2023-02-28T03:04:11;-1.40;99.90
28677;DHT22;15858;48.338;11.078;2023-02-28T03:06:40;-1.40;99.90
28677;DHT22;15858;48.338;11.078;2023-02-28T03:09:07;-1.30;99.90
28677;DHT22;15858;48.338;11.078;2023-02-28T03:11:35;-1.30;99.90
28677;DHT22;15858;48.338;11.078;2023-02-28T03:14:37;-1.40;99.90
28677;DHT22;15858;48.338;11.078;2023-02-28T03:20:04;-1.30;99.90
28677;DHT22;15858;48.338;11.078;2023-02-28T03:23:01;-1.30;99.90
28677;DHT22;15858;48.338;11.078;2023-02-28T03:25:38;-1.30;99.90
28677;DHT22;15858;48.338;11.078;2023-02-28T03:28:31;-1.40;99.90
28677;DHT22;15858;48.338;11.078;2023-02-28T03:33:38;-1.40;99.90
28677;DHT22;15858;48.338;11.078;2023-02-28T03:36:17;-1.40;99.90
28677;DHT22;15858;48.338;11.078;2023-02-28T03:38:58;-1.20;99.90
28677;DHT22;15858;48.338;11.078;2023-02-28T03:41:36;-1.40;99.90
28677;DHT22;15858;48.338;11.078;2023-02-28T03:44:11;-1.40;99.90
28677;DHT22;15858;48.338;11.078;2023-02-28T03:46:46;-1.40;99.90
28677;DHT22;15858;48.338;11.078;2023-02-28T03:49:22;-1.50;99.90
28677;DHT22;15858;48.338;11.078;2023-02-28T03:51:51;-1.20;99.90
28677;DHT22;15858;48.338;11.078;2023-02-28T03:54:24;-1.40;99.90
28677;DHT22;15858;48.338;11.078;2023-02-28T03:57:02;-1.20;99.90
28677;DHT22;15858;48.338;11.078;2023-02-28T03:59:37;-1.30;99.90
28677;DHT22;15858;48.338;11.078;2023-02-28T04:02:06;-1.30;99.90
28677;DHT22;15858;48.338;11.078;2023-02-28T04:04:34;-1.40;99.90
28677;DHT22;15858;48.338;11.078;2023-02-28T04:07:03;-1.30;99.90
28677;DHT22;15858;48.338;11.078;2023-02-28T04:09:30;-1.30;99.90
28677;DHT22;15858;48.338;11.078;2023-02-28T04:11:56;-1.40;99.90
28677;DHT22;15858;48.338;11.078;2023-02-28T04:14:23;-1.30;99.90
28677;DHT22;15858;48.338;11.078;2023-02-28T04:16:50;-1.20;99.90
28677;DHT22;15858;48.338;11.078;2023-02-28T04:19:17;-1.30;99.90
28677;DHT22;15858;48.338;11.078;2023-02-28T04:21:49;-1.30;99.90
28677;DHT22;15858;48.338;11.078;2023-02-28T04:24:21;-1.20;99.90
28677;DHT22;15858;48.338;11.078;2023-02-28T04:26:53;-1.20;99.90
28677;DHT22;15858;48.338;11.078;2023-02-28T04:29:31;-1.20;99.90
28677;DHT22;15858;48.338;11.078;2023-02-28T04:31:58;-1.30;99.90
28677;DHT22;15858;48.338;11.078;2023-02-28T04:34:27;-1.20;99.90
28677;DHT22;15858;48.338;11.078;2023-02-28T04:36:54;-1.20;99.90
28677;DHT22;15858;48.338;11.078;2023-02-28T04:39:38;-1.30;99.90
28677;DHT22;15858;48.338;11.078;2023-02-28T04:42:05;-1.30;99.90
28677;DHT22;15858;48.338;11.078;2023-02-28T04:44:31;-1.30;99.90
28677;DHT22;15858;48.338;11.078;2023-02-28T04:46:58;-1.10;99.90
28677;DHT22;15858;48.338;11.078;2023-02-28T04:49:24;-1.20;99.90
28677;DHT22;15858;48.338;11.078;2023-02-28T04:51:51;-1.20;99.90
28677;DHT22;15858;48.338;11.078;2023-02-28T04:54:17;-1.30;99.90
28677;DHT22;15858;48.338;11.078;2023-02-28T04:56:44;-1.40;99.90
28677;DHT22;15858;48.338;11.078;2023-02-28T04:59:11;-1.40;99.90
28677;DHT22;15858;48.338;11.078;2023-02-28T05:01:37;-1.40;99.90
28677;DHT22;15858;48.338;11.078;2023-02-28T05:04:04;-1.40;99.90
28677;DHT22;15858;48.338;11.078;2023-02-28T05:06:32;-1.30;99.90
28677;DHT22;15858;48.338;11.078;2023-02-28T05:08:59;-1.30;99.90
28677;DHT22;15858;48.338;11.078;2023-02-28T05:11:29;-1.30;99.90
28677;DHT22;15858;48.338;11.078;2023-02-28T05:13:56;-1.10;99.90
28677;DHT22;15858;48.338;11.078;2023-02-28T05:16:23;-1.20;99.90
28677;DHT22;15858;48.338;11.078;2023-02-28T05:18:49;-1.20;99.90
28677;DHT22;15858;48.338;11.078;2023-02-28T05:23:52;-1.30;99.90
28677;DHT22;15858;48.338;11.078;2023-02-28T05:26:20;-1.30;99.90
28677;DHT22;15858;48.338;11.078;2023-02-28T05:28:46;-1.20;99.90
28677;DHT22;15858;48.338;11.078;2023-02-28T05:31:13;-1.20;99.90
28677;DHT22;15858;48.338;11.078;2023-02-28T05:33:40;-1.30;99.90
28677;DHT22;15858;48.338;11.078;2023-02-28T05:36:07;-1.20;99.90
28677;DHT22;15858;48.338;11.078;2023-02-28T05:38:34;-1.20;99.90
28677;DHT22;15858;48.338;11.078;2023-02-28T05:41:08;-1.30;99.90
28677;DHT22;15858;48.338;11.078;2023-02-28T05:43:36;-1.40;99.90
28677;DHT22;15858;48.338;11.078;2023-02-28T05:46:04;-1.30;99.90
28677;DHT22;15858;48.338;11.078;2023-02-28T05:48:32;-1.40;99.90
28677;DHT22;15858;48.338;11.078;2023-02-28T05:50:59;-1.30;99.90
28677;DHT22;15858;48.338;11.078;2023-02-28T05:53:25;-1.30;99.90
28677;DHT22;15858;48.338;11.078;2023-02-28T05:55:52;-1.10;99.90
28677;DHT22;15858;48.338;11.078;2023-02-28T05:58:19;-1.20;99.90
28677;DHT22;15858;48.338;11.078;2023-02-28T06:00:46;-1.10;99.90
28677;DHT22;15858;48.338;11.078;2023-02-28T06:03:12;-1.30;99.90
28677;DHT22;15858;48.338;11.078;2023-02-28T06:05:39;-1.30;99.90
28677;DHT22;15858;48.338;11.078;2023-02-28T06:08:06;-1.30;99.90
28677;DHT22;15858;48.338;11.078;2023-02-28T06:10:34;-1.40;99.90
28677;DHT22;15858;48.338;11.078;2023-02-28T06:13:01;-1.30;99.90
28677;DHT22;15858;48.338;11.078;2023-02-28T06:15:28;-1.30;99.90
28677;DHT22;15858;48.338;11.078;2023-02-28T06:17:55;-1.30;99.90
28677;DHT22;15858;48.338;11.078;2023-02-28T06:20:22;-1.30;99.90
28677;DHT22;15858;48.338;11.078;2023-02-28T06:22:49;-1.20;99.90
28677;DHT22;15858;48.338;11.078;2023-02-28T06:25:16;-1.20;99.90
28677;DHT22;15858;48.338;11.078;2023-02-28T06:27:43;-1.40;99.90
28677;DHT22;15858;48.338;11.078;2023-02-28T06:30:11;-1.20;99.90
28677;DHT22;15858;48.338;11.078;2023-02-28T06:32:38;-1.20;99.90
28677;DHT22;15858;48.338;11.078;2023-02-28T06:35:04;-1.20;99.90
28677;DHT22;15858;48.338;11.078;2023-02-28T06:37:32;-1.30;99.90
28677;DHT22;15858;48.338;11.078;2023-02-28T06:39:58;-1.20;99.90
28677;DHT22;15858;48.338;11.078;2023-02-28T06:42:25;-1.20;99.90
28677;DHT22;15858;48.338;11.078;2023-02-28T06:44:52;-1.40;99.90
28677;DHT22;15858;48.338;11.078;2023-02-28T06:47:19;-1.20;99.90
28677;DHT22;15858;48.338;11.078;2023-02-28T06:49:47;-1.20;99.90
28677;DHT22;15858;48.338;11.078;2023-02-28T06:52:14;-1.30;99.90
28677;DHT22;15858;48.338;11.078;2023-02-28T06:54:40;-1.30;99.90
28677;DHT22;15858;48.338;11.078;2023-02-28T06:57:07;-1.30;99.90
28677;DHT22;15858;48.338;11.078;2023-02-28T06:59:34;-1.30;99.90
28677;DHT22;15858;48.338;11.078;2023-02-28T07:02:01;-1.30;99.90
28677;DHT22;15858;48.338;11.078;2023-02-28T07:04:28;-1.30;99.90
28677;DHT22;15858;48.338;11.078;2023-02-28T07:06:55;-1.20;99.90
28677;DHT22;15858;48.338;11.078;2023-02-28T07:09:21;-1.10;99.90
28677;DHT22;15858;48.338;11.078;2023-02-28T07:11:48;-1.30;99.90
28677;DHT22;15858;48.338;11.078;2023-02-28T07:14:14;-1.30;99.90
28677;DHT22;15858;48.338;11.078;2023-02-28T07:16:41;-1.20;99.90
28677;DHT22;15858;48.338;11.078;2023-02-28T07:19:08;-1.10;99.90
28677;DHT22;15858;48.338;11.078;2023-02-28T07:21:34;-1.20;99.90
28677;DHT22;15858;48.338;11.078;2023-02-28T07:24:01;-1.20;99.90
28677;DHT22;15858;48.338;11.078;2023-02-28T07:26:27;-1.00;99.90
28677;DHT22;15858;48.338;11.078;2023-02-28T07:28:54;-1.00;99.90
28677;DHT22;15858;48.338;11.078;2023-02-28T07:31:20;-1.00;99.90
28677;DHT22;15858;48.338;11.078;2023-02-28T07:33:47;-1.00;99.90
28677;DHT22;15858;48.338;11.078;2023-02-28T07:36:15;-1.10;99.90
28677;DHT22;15858;48.338;11.078;2023-02-28T07:38:44;-1.10;99.90
28677;DHT22;15858;48.338;11.078;2023-02-28T07:41:15;-1.10;99.90
28677;DHT22;15858;48.338;11.078;2023-02-28T07:43:42;-1.00;99.90
28677;DHT22;15858;48.338;11.078;2023-02-28T07:46:11;-1.00;99.90
28677;DHT22;15858;48.338;11.078;2023-02-28T07:48:38;-1.00;99.90
28677;DHT22;15858;48.338;11.078;2023-02-28T07:51:05;-1.00;99.90
28677;DHT22;15858;48.338;11.078;2023-02-28T07:53:31;-0.90;99.90
28677;DHT22;15858;48.338;11.078;2023-02-28T07:55:59;-0.90;99.90
28677;DHT22;15858;48.338;11.078;2023-02-28T07:58:27;-1.00;99.90
28677;DHT22;15858;48.338;11.078;2023-02-28T08:00:54;-1.20;99.90
28677;DHT22;15858;48.338;11.078;2023-02-28T08:03:22;-1.10;99.90
28677;DHT22;15858;48.338;11.078;2023-02-28T08:05:49;-1.00;99.90
28677;DHT22;15858;48.338;11.078;2023-02-28T08:08:16;-1.00;99.90
28677;DHT22;15858;48.338;11.078;2023-02-28T08:10:43;-1.00;99.90
28677;DHT22;15858;48.338;11.078;2023-02-28T08:13:10;-0.90;99.90
28677;DHT22;15858;48.338;11.078;2023-02-28T08:15:36;-0.80;99.90
28677;DHT22;15858;48.338;11.078;2023-02-28T08:18:03;-0.70;99.90
28677;DHT22;15858;48.338;11.078;2023-02-28T08:20:30;-0.80;99.90
28677;DHT22;15858;48.338;11.078;2023-02-28T08:22:56;-0.80;99.90
28677;DHT22;15858;48.338;11.078;2023-02-28T08:25:23;-0.80;99.90
28677;DHT22;15858;48.338;11.078;2023-02-28T08:27:51;-0.80;99.90
28677;DHT22;15858;48.338;11.078;2023-02-28T08:30:18;-0.80;99.90
28677;DHT22;15858;48.338;11.078;2023-02-28T08:32:44;-0.70;99.90
28677;DHT22;15858;48.338;11.078;2023-02-28T08:35:11;-0.70;99.90
28677;DHT22;15858;48.338;11.078;2023-02-28T08:37:38;-0.50;99.90
28677;DHT22;15858;48.338;11.078;2023-02-28T08:40:05;-0.50;99.90
28677;DHT22;15858;48.338;11.078;2023-02-28T08:42:32;-0.70;99.90
28677;DHT22;15858;48.338;11.078;2023-02-28T08:44:58;-0.50;99.90
28677;DHT22;15858;48.338;11.078;2023-02-28T08:47:25;-0.50;99.90
28677;DHT22;15858;48.338;11.078;2023-02-28T08:49:51;-0.40;99.90
28677;DHT22;15858;48.338;11.078;2023-02-28T08:52:18;-0.30;99.90
28677;DHT22;15858;48.338;11.078;2023-02-28T08:54:45;-0.30;99.90
28677;DHT22;15858;48.338;11.078;2023-02-28T08:57:11;-0.20;99.90
28677;DHT22;15858;48.338;11.078;2023-02-28T08:59:38;-0.20;99.90
28677;DHT22;15858;48.338;11.078;2023-02-28T09:02:04;-0.20;99.90
28677;DHT22;15858;48.338;11.078;2023-02-28T09:04:31;-0.10;99.90
28677;DHT22;15858;48.338;11.078;2023-02-28T09:06:58;0.00;99.90
28677;DHT22;15858;48.338;11.078;2023-02-28T09:09:24;-0.10;99.90
28677;DHT22;15858;48.338;11.078;2023-02-28T09:11:51;0.00;99.90
28677;DHT22;15858;48.338;11.078;2023-02-28T09:14:17;0.30;99.90
28677;DHT22;15858;48.338;11.078;2023-02-28T09:16:44;0.50;99.90
28677;DHT22;15858;48.338;11.078;2023-02-28T09:19:11;0.50;99.90
28677;DHT22;15858;48.338;11.078;2023-02-28T09:21:38;0.50;99.90
28677;DHT22;15858;48.338;11.078;2023-02-28T09:24:05;0.60;99.90
28677;DHT22;15858;48.338;11.078;2023-02-28T09:26:32;0.50;99.90
28677;DHT22;15858;48.338;11.078;2023-02-28T09:29:13;0.50;99.90
28677;DHT22;15858;48.338;11.078;2023-02-28T09:31:39;0.60;99.90
28677;DHT22;15858;48.338;11.078;2023-02-28T09:34:06;0.60;99.90
28677;DHT22;15858;48.338;11.078;2023-02-28T09:36:33;0.70;99.90
28677;DHT22;15858;48.338;11.078;2023-02-28T09:39:10;0.70;99.90
28677;DHT22;15858;48.338;11.078;2023-02-28T09:41:42;0.70;99.90
28677;DHT22;15858;48.338;11.078;2023-02-28T09:44:16;0.80;99.90
28677;DHT22;15858;48.338;11.078;2023-02-28T09:46:57;0.70;99.90
28677;DHT22;15858;48.338;11.078;2023-02-28T09:49:31;0.80;99.90
28677;DHT22;15858;48.338;11.078;2023-02-28T09:52:11;0.60;99.90
28677;DHT22;15858;48.338;11.078;2023-02-28T09:54:38;0.70;99.90
28677;DHT22;15858;48.338;11.078;2023-02-28T09:57:17;0.70;99.90
28677;DHT22;15858;48.338;11.078;2023-02-28T10:00:18;1.10;99.90
28677;DHT22;15858;48.338;11.078;2023-02-28T10:03:20;1.40;99.90
28677;DHT22;15858;48.338;11.078;2023-02-28T10:08:28;1.90;99.90
28677;DHT22;15858;48.338;11.078;2023-02-28T10:10:57;1.90;99.90
28677;DHT22;15858;48.338;11.078;2023-02-28T10:16:18;2.30;99.90
28677;DHT22;15858;48.338;11.078;2023-02-28T10:18:50;2.40;99.90
28677;DHT22;15858;48.338;11.078;2023-02-28T10:21:26;2.50;99.90
28677;DHT22;15858;48.338;11.078;2023-02-28T10:23:59;2.40;99.90
28677;DHT22;15858;48.338;11.078;2023-02-28T10:26:29;2.40;99.90
28677;DHT22;15858;48.338;11.078;2023-02-28T10:28:57;2.50;99.90
28677;DHT22;15858;48.338;11.078;2023-02-28T10:31:24;2.80;99.90
28677;DHT22;15858;48.338;11.078;2023-02-28T10:33:52;3.10;99.90
28677;DHT22;15858;48.338;11.078;2023-02-28T10:36:20;3.40;99.90
28677;DHT22;15858;48.338;11.078;2023-02-28T10:38:48;3.60;99.90
28677;DHT22;15858;48.338;11.078;2023-02-28T10:41:29;3.60;99.90
28677;DHT22;15858;48.338;11.078;2023-02-28T10:44:22;3.70;99.90
28677;DHT22;15858;48.338;11.078;2023-02-28T10:46:49;3.70;99.90
28677;DHT22;15858;48.338;11.078;2023-02-28T10:49:28;3.90;99.90
28677;DHT22;15858;48.338;11.078;2023-02-28T10:51:59;3.90;99.90
28677;DHT22;15858;48.338;11.078;2023-02-28T10:54:32;3.90;99.90
28677;DHT22;15858;48.338;11.078;2023-02-28T10:59:33;4.00;99.90
28677;DHT22;15858;48.338;11.078;2023-02-28T11:01:59;4.00;99.90
28677;DHT22;15858;48.338;11.078;2023-02-28T11:07:02;4.40;99.90
28677;DHT22;15858;48.338;11.078;2023-02-28T11:09:39;4.50;99.90
28677;DHT22;15858;48.338;11.078;2023-02-28T11:12:19;4.50;99.90
28677;DHT22;15858;48.338;11.078;2023-02-28T11:14:52;4.30;99.90
28677;DHT22;15858;48.338;11.078;2023-02-28T11:17:23;4.20;99.90
28677;DHT22;15858;48.338;11.078;2023-02-28T11:19:53;4.20;99.90
28677;DHT22;15858;48.338;11.078;2023-02-28T11:22:23;4.40;99.90
28677;DHT22;15858;48.338;11.078;2023-02-28T11:24:53;4.70;99.90
28677;DHT22;15858;48.338;11.078;2023-02-28T11:29:58;4.80;99.90
28677;DHT22;15858;48.338;11.078;2023-02-28T11:32:29;5.00;99.90
28677;DHT22;15858;48.338;11.078;2023-02-28T11:37:37;4.60;99.90
28677;DHT22;15858;48.338;11.078;2023-02-28T11:40:15;4.20;99.90
28677;DHT22;15858;48.338;11.078;2023-02-28T11:42:49;4.20;99.90
28677;DHT22;15858;48.338;11.078;2023-02-28T11:45:40;4.20;99.90
28677;DHT22;15858;48.338;11.078;2023-02-28T11:48:23;4.20;99.90
28677;DHT22;15858;48.338;11.078;2023-02-28T11:51:10;4.10;99.90
28677;DHT22;15858;48.338;11.078;2023-02-28T11:56:23;4.60;99.90
28677;DHT22;15858;48.338;11.078;2023-02-28T12:01:38;4.90;99.90
28677;DHT22;15858;48.338;11.078;2023-02-28T12:07:03;5.10;99.90
28677;DHT22;15858;48.338;11.078;2023-02-28T12:24:04;5.40;99.90
28677;DHT22;15858;48.338;11.078;2023-02-28T12:26:40;5.30;99.90
28677;DHT22;15858;48.338;11.078;2023-02-28T12:29:26;5.20;99.90
28677;DHT22;15858;48.338;11.078;2023-02-28T12:32:12;5.20;99.90
28677;DHT22;15858;48.338;11.078;2023-02-28T12:34:47;5.30;99.90
28677;DHT22;15858;48.338;11.078;2023-02-28T12:37:28;5.40;99.90
28677;DHT22;15858;48.338;11.078;2023-02-28T12:40:01;5.70;99.90
28677;DHT22;15858;48.338;11.078;2023-02-28T12:42:30;5.90;99.90
28677;DHT22;15858;48.338;11.078;2023-02-28T12:45:02;5.70;99.90
28677;DHT22;15858;48.338;11.078;2023-02-28T12:47:30;5.80;99.90
28677;DHT22;15858;48.338;11.078;2023-02-28T12:50:03;5.90;99.90
28677;DHT22;15858;48.338;11.078;2023-02-28T12:52:39;6.00;99.90
28677;DHT22;15858;48.338;11.078;2023-02-28T12:58:10;6.10;99.90
28677;DHT22;15858;48.338;11.078;2023-02-28T13:07:21;5.90;99.90
28677;DHT22;15858;48.338;11.078;2023-02-28T13:09:56;5.70;99.90
28677;DHT22;15858;48.338;11.078;2023-02-28T13:12:24;5.70;99.90
28677;DHT22;15858;48.338;11.078;2023-02-28T13:17:49;5.20;99.90
28677;DHT22;15858;48.338;11.078;2023-02-28T13:20:24;4.90;99.90
28677;DHT22;15858;48.338;11.078;2023-02-28T13:22:53;5.20;99.90
28677;DHT22;15858;48.338;11.078;2023-02-28T13:27:53;5.60;99.90
28677;DHT22;15858;48.338;11.078;2023-02-28T13:31:03;5.80;99.90
28677;DHT22;15858;48.338;11.078;2023-02-28T13:33:31;5.70;99.90
28677;DHT22;15858;48.338;11.078;2023-02-28T13:36:26;5.50;99.90
28677;DHT22;15858;48.338;11.078;2023-02-28T13:38:57;5.50;99.90
28677;DHT22;15858;48.338;11.078;2023-02-28T13:44:18;5.40;99.90
28677;DHT22;15858;48.338;11.078;2023-02-28T13:49:27;5.50;99.90
28677;DHT22;15858;48.338;11.078;2023-02-28T14:06:13;5.80;99.90
28677;DHT22;15858;48.338;11.078;2023-02-28T14:09:06;5.80;99.90
28677;DHT22;15858;48.338;11.078;2023-02-28T14:11:42;5.90;99.90
28677;DHT22;15858;48.338;11.078;2023-02-28T14:17:03;5.90;99.90
28677;DHT22;15858;48.338;11.078;2023-02-28T14:19:32;5.80;99.90
28677;DHT22;15858;48.338;11.078;2023-02-28T14:28:05;5.80;99.90
28677;DHT22;15858;48.338;11.078;2023-02-28T14:36:32;5.60;99.90
28677;DHT22;15858;48.338;11.078;2023-02-28T14:39:10;5.70;99.90
28677;DHT22;15858;48.338;11.078;2023-02-28T14:41:40;5.40;99.90
28677;DHT22;15858;48.338;11.078;2023-02-28T14:46:56;5.30;99.90
28677;DHT22;15858;48.338;11.078;2023-02-28T14:49:28;5.20;99.90
28677;DHT22;15858;48.338;11.078;2023-02-28T14:52:05;5.30;99.90
28677;DHT22;15858;48.338;11.078;2023-02-28T14:54:31;5.20;99.90
28677;DHT22;15858;48.338;11.078;2023-02-28T14:56:58;5.20;99.90
28677;DHT22;15858;48.338;11.078;2023-02-28T14:59:28;5.20;99.90
28677;DHT22;15858;48.338;11.078;2023-02-28T15:02:21;5.10;99.90
28677;DHT22;15858;48.338;11.078;2023-02-28T15:07:41;5.30;99.90
28677;DHT22;15858;48.338;11.078;2023-02-28T15:10:21;5.30;99.90
28677;DHT22;15858;48.338;11.078;2023-02-28T15:12:58;5.40;99.90
28677;DHT22;15858;48.338;11.078;2023-02-28T15:15:35;5.30;99.90
28677;DHT22;15858;48.338;11.078;2023-02-28T15:21:03;5.20;99.90
28677;DHT22;15858;48.338;11.078;2023-02-28T15:23:31;5.20;99.90
28677;DHT22;15858;48.338;11.078;2023-02-28T15:26:00;5.20;99.90
28677;DHT22;15858;48.338;11.078;2023-02-28T15:28:27;5.40;99.90
28677;DHT22;15858;48.338;11.078;2023-02-28T15:30:57;5.30;99.90
28677;DHT22;15858;48.338;11.078;2023-02-28T15:33:30;5.20;99.90
28677;DHT22;15858;48.338;11.078;2023-02-28T15:36:13;5.20;99.90
28677;DHT22;15858;48.338;11.078;2023-02-28T15:38:42;5.20;99.90
28677;DHT22;15858;48.338;11.078;2023-02-28T15:41:36;4.90;99.90
28677;DHT22;15858;48.338;11.078;2023-02-28T15:46:59;4.90;99.90
28677;DHT22;15858;48.338;11.078;2023-02-28T15:49:26;4.80;99.90
28677;DHT22;15858;48.338;11.078;2023-02-28T15:51:56;4.80;99.90
28677;DHT22;15858;48.338;11.078;2023-02-28T15:54:28;4.80;99.90
28677;DHT22;15858;48.338;11.078;2023-02-28T15:56:57;4.70;99.90
28677;DHT22;15858;48.338;11.078;2023-02-28T15:59:29;4.60;99.90
28677;DHT22;15858;48.338;11.078;2023-02-28T16:02:11;4.70;99.90
28677;DHT22;15858;48.338;11.078;2023-02-28T16:04:56;4.80;99.90
28677;DHT22;15858;48.338;11.078;2023-02-28T16:07:23;4.50;99.90
28677;DHT22;15858;48.338;11.078;2023-02-28T16:09:50;4.30;99.90
28677;DHT22;15858;48.338;11.078;2023-02-28T16:12:17;4.30;99.90
28677;DHT22;15858;48.338;11.078;2023-02-28T16:14:44;4.20;99.90
28677;DHT22;15858;48.338;11.078;2023-02-28T16:17:33;4.20;99.90
28677;DHT22;15858;48.338;11.078;2023-02-28T16:19:59;4.10;99.90
28677;DHT22;15858;48.338;11.078;2023-02-28T16:22:26;4.00;99.90
28677;DHT22;15858;48.338;11.078;2023-02-28T16:24:53;3.90;99.90
28677;DHT22;15858;48.338;11.078;2023-02-28T16:27:32;4.00;99.90
28677;DHT22;15858;48.338;11.078;2023-02-28T16:30:00;3.90;99.90
28677;DHT22;15858;48.338;11.078;2023-02-28T16:32:34;3.80;99.90
28677;DHT22;15858;48.338;11.078;2023-02-28T16:35:01;3.80;99.90
28677;DHT22;15858;48.338;11.078;2023-02-28T16:37:28;3.70;99.90
28677;DHT22;15858;48.338;11.078;2023-02-28T16:39:54;3.60;99.90
28677;DHT22;15858;48.338;11.078;2023-02-28T16:42:27;3.60;99.90
28677;DHT22;15858;48.338;11.078;2023-02-28T16:44:55;3.60;99.90
28677;DHT22;15858;48.338;11.078;2023-02-28T16:47:22;3.60;99.90
28677;DHT22;15858;48.338;11.078;2023-02-28T16:49:48;3.50;99.90
28677;DHT22;15858;48.338;11.078;2023-02-28T16:52:15;3.40;99.90
28677;DHT22;15858;48.338;11.078;2023-02-28T16:54:42;3.40;99.90
28677;DHT22;15858;48.338;11.078;2023-02-28T16:57:22;3.30;99.90
28677;DHT22;15858;48.338;11.078;2023-02-28T16:59:50;3.20;99.90
28677;DHT22;15858;48.338;11.078;2023-02-28T17:02:18;3.20;99.90
28677;DHT22;15858;48.338;11.078;2023-02-28T17:04:45;3.20;99.90
28677;DHT22;15858;48.338;11.078;2023-02-28T17:07:14;3.10;99.90
28677;DHT22;15858;48.338;11.078;2023-02-28T17:09:41;3.10;99.90
28677;DHT22;15858;48.338;11.078;2023-02-28T17:12:11;3.00;99.90
28677;DHT22;15858;48.338;11.078;2023-02-28T17:14:38;3.00;99.90
28677;DHT22;15858;48.338;11.078;2023-02-28T17:17:06;2.90;99.90
28677;DHT22;15858;48.338;11.078;2023-02-28T17:19:33;2.70;99.90
28677;DHT22;15858;48.338;11.078;2023-02-28T17:21:59;2.60;99.90
28677;DHT22;15858;48.338;11.078;2023-02-28T17:24:26;2.60;99.90
28677;DHT22;15858;48.338;11.078;2023-02-28T17:26:57;2.40;99.90
28677;DHT22;15858;48.338;11.078;2023-02-28T17:29:23;2.40;99.90
28677;DHT22;15858;48.338;11.078;2023-02-28T17:31:50;2.30;99.90
28677;DHT22;15858;48.338;11.078;2023-02-28T17:34:16;2.30;99.90
28677;DHT22;15858;48.338;11.078;2023-02-28T17:36:44;2.20;99.90
28677;DHT22;15858;48.338;11.078;2023-02-28T17:39:12;2.10;99.90
28677;DHT22;15858;48.338;11.078;2023-02-28T17:41:40;2.00;99.90
28677;DHT22;15858;48.338;11.078;2023-02-28T17:44:07;1.90;99.90
28677;DHT22;15858;48.338;11.078;2023-02-28T17:46:34;1.90;99.90
28677;DHT22;15858;48.338;11.078;2023-02-28T17:49:00;1.80;99.90